Pullman, West Virginia
Current Conditions -  °F | °C
As of 6:00 AM on Tuesday 21 Oct 2014 (Local Time) from KPKB Reporting Station
Overcast Overcast  
Wind Chill: 50°   Ceiling: 2800
Heat Index: 50°   Visibility: 10mi
Dew Point: 47°   Wind: 3mph
Humidity: 89%   Direction: 200°SSW
Pressure: 29.92"   Gusts: NA
Location:  39.19°N, 80.95°W
Report Text: KPKB 211000Z AUTO 20003KT 10SM OVC028 10/08 A2992 RMK AO2 T01000083
Loading
Personal Weather Stations






























Interactive Weather Map
Tropical Storm Tracking
New forecast layout! Learn more

10-Day Weather Forecast

Advertisements
Track Severe Weather on mobile